Time;durP1;ratioP1;P1;durP2;ratioP2;P2;SDS_P1;SDS_P2;PMS_P1;PMS_P2;Temp;Humidity;BMP_temperature;BMP_pressure;BME280_temperature;BME280_humidity;BME280_pressure;Samples;Min_cycle;Max_cycle;Signal;HPM_P1;HPM_P2
2023/07/05 00:03:34;;;;;;;11.05;6.68;;;16.40;99.90;;;;;;7383485;32;20115;-59
2023/07/05 00:07:36;;;;;;;14.13;7.45;;;16.40;99.90;;;;;;7375404;32;20111;-57
2023/07/05 00:11:38;;;;;;;10.00;6.70;;;16.30;99.90;;;;;;7375050;32;20162;-56
2023/07/05 00:15:46;;;;;;;8.00;5.62;;;16.30;99.90;;;;;;7377180;32;20171;-57
2023/07/05 00:19:52;;;;;;;9.18;6.47;;;16.40;99.90;;;;;;7376848;32;20706;-56
2023/07/05 00:23:54;;;;;;;9.10;5.90;;;16.40;99.90;;;;;;7378032;32;20157;-56
2023/07/05 00:27:55;;;;;;;7.90;5.68;;;16.40;99.90;;;;;;7382570;32;20106;-56
2023/07/05 00:31:57;;;;;;;9.68;5.75;;;16.30;99.90;;;;;;7382921;32;20653;-56
2023/07/05 00:35:59;;;;;;;11.38;6.07;;;16.30;99.90;;;;;;7373216;32;20115;-56
2023/07/05 00:40:01;;;;;;;8.52;5.32;;;16.30;99.90;;;;;;7381402;32;20167;-56
2023/07/05 00:44:03;;;;;;;8.20;5.45;;;16.30;99.90;;;;;;7379128;32;20217;-57
2023/07/05 00:48:05;;;;;;;7.07;4.90;;;16.20;99.90;;;;;;7382044;32;20498;-56
2023/07/05 00:52:12;;;;;;;11.50;5.43;;;16.20;99.90;;;;;;7374027;32;20123;-56
2023/07/05 00:56:19;;;;;;;;;;;16.20;99.90;;;;;;7378180;32;20300;-57
2023/07/05 01:00:22;;;;;;;9.80;4.93;;;16.20;99.90;;;;;;7370334;32;20137;-57
2023/07/05 01:04:23;;;;;;;10.55;4.85;;;16.20;99.90;;;;;;7375808;32;20231;-57
2023/07/05 01:08:25;;;;;;;5.70;4.43;;;16.20;99.90;;;;;;7369029;32;20193;-56
2023/07/05 01:12:46;;;;;;;7.28;4.50;;;16.20;99.90;;;;;;7381764;32;20102;-56
2023/07/05 01:17:10;;;;;;;8.77;5.03;;;16.10;99.90;;;;;;7378378;32;20449;-57
2023/07/05 01:21:25;;;;;;;7.85;4.40;;;16.20;99.90;;;;;;7375427;32;20209;-56
2023/07/05 01:25:41;;;;;;;7.30;4.20;;;16.30;99.90;;;;;;7378363;32;20119;-56
2023/07/05 01:29:53;;;;;;;6.87;4.20;;;16.20;99.90;;;;;;7376514;32;20126;-57
2023/07/05 01:34:17;;;;;;;7.30;4.05;;;16.20;99.90;;;;;;7379530;32;20576;-57
2023/07/05 01:38:19;;;;;;;6.03;4.03;;;16.30;99.90;;;;;;7382850;32;20147;-56
2023/07/05 01:42:28;;;;;;;8.10;4.07;;;16.30;99.90;;;;;;7372946;32;20183;-56
2023/07/05 01:46:49;;;;;;;9.07;3.60;;;16.30;99.90;;;;;;7379299;32;20095;-56
2023/07/05 01:51:21;;;;;;;8.50;3.62;;;16.30;99.90;;;;;;7375724;32;20181;-56
2023/07/05 01:55:32;;;;;;;6.53;3.30;;;16.30;99.90;;;;;;7386208;32;20216;-56
2023/07/05 01:59:43;;;;;;;5.97;3.30;;;16.20;99.90;;;;;;7371633;32;20194;-56
2023/07/05 02:03:49;;;;;;;7.90;3.40;;;16.30;99.90;;;;;;7375538;32;20139;-56
2023/07/05 02:07:51;;;;;;;4.68;3.50;;;16.30;99.90;;;;;;7385365;32;20154;-56
2023/07/05 02:11:53;;;;;;;4.80;3.25;;;16.30;99.90;;;;;;7379089;32;20107;-56
2023/07/05 02:15:55;;;;;;;6.93;3.40;;;16.30;99.90;;;;;;7385111;32;20130;-56
2023/07/05 02:19:57;;;;;;;6.20;3.42;;;16.20;99.90;;;;;;7378944;32;20281;-55
2023/07/05 02:23:59;;;;;;;5.30;3.50;;;16.30;99.90;;;;;;7381707;32;20291;-56
2023/07/05 02:28:04;;;;;;;5.68;3.17;;;16.30;99.90;;;;;;7380456;32;20114;-56
2023/07/05 02:32:06;;;;;;;4.60;3.30;;;16.30;99.90;;;;;;7378308;32;20156;-56
2023/07/05 02:36:13;;;;;;;4.62;3.25;;;16.30;99.90;;;;;;7384367;32;20135;-56
2023/07/05 02:40:15;;;;;;;5.85;3.58;;;16.30;99.90;;;;;;7380863;32;20163;-56
2023/07/05 02:44:17;;;;;;;6.43;3.20;;;16.40;99.90;;;;;;7368515;32;20513;-55
2023/07/05 02:48:19;;;;;;;6.10;3.42;;;16.40;99.90;;;;;;7379007;32;20126;-55
2023/07/05 02:52:20;;;;;;;5.55;3.70;;;16.30;99.90;;;;;;7367136;32;20198;-56
2023/07/05 02:56:24;;;;;;;5.82;3.70;;;16.40;99.90;;;;;;7378462;32;20104;-56
2023/07/05 03:00:27;;;;;;;6.50;3.40;;;16.40;99.90;;;;;;7370483;32;20182;-56
2023/07/05 03:04:28;;;;;;;4.93;3.60;;;16.40;99.90;;;;;;7378987;32;20160;-55
2023/07/05 03:08:30;;;;;;;5.12;3.62;;;16.40;99.90;;;;;;7368240;32;20150;-57
2023/07/05 03:12:32;;;;;;;5.10;3.58;;;16.40;99.90;;;;;;7371829;32;20133;-56
2023/07/05 03:16:34;;;;;;;4.45;2.83;;;16.40;99.90;;;;;;7371862;32;20218;-56
2023/07/05 03:20:38;;;;;;;4.28;2.62;;;16.40;99.90;;;;;;7365260;32;20700;-55
2023/07/05 03:24:40;;;;;;;9.10;2.78;;;16.40;99.90;;;;;;7372433;32;20462;-56
2023/07/05 03:28:41;;;;;;;6.20;2.28;;;16.30;99.90;;;;;;7367992;32;20108;-56
2023/07/05 03:32:43;;;;;;;3.45;1.67;;;16.30;99.90;;;;;;7373107;32;20742;-57
2023/07/05 03:36:45;;;;;;;3.25;1.48;;;16.00;99.90;;;;;;7372216;32;20572;-56
2023/07/05 03:40:59;;;;;;;4.95;1.62;;;15.60;99.90;;;;;;7373752;32;20179;-55
2023/07/05 03:45:01;;;;;;;6.47;1.85;;;15.30;99.90;;;;;;7368710;32;20235;-55
2023/07/05 03:49:03;;;;;;;2.45;1.35;;;15.00;99.90;;;;;;7376663;32;20150;-56
2023/07/05 03:53:04;;;;;;;3.65;1.40;;;14.70;99.90;;;;;;7361971;32;20236;-55
2023/07/05 03:57:07;;;;;;;2.83;1.70;;;14.50;99.90;;;;;;7378195;32;20286;-56
2023/07/05 04:01:15;;;;;;;4.72;1.70;;;14.30;99.90;;;;;;7383240;32;20178;-55
2023/07/05 04:05:17;;;;;;;3.92;1.65;;;14.00;99.90;;;;;;7374765;32;20111;-55
2023/07/05 04:09:19;;;;;;;3.45;1.83;;;13.90;99.90;;;;;;7381101;32;20122;-55
2023/07/05 04:13:21;;;;;;;2.85;1.73;;;13.80;99.90;;;;;;7382325;32;20950;-56
2023/07/05 04:17:22;;;;;;;3.37;2.30;;;13.80;99.90;;;;;;7376847;32;20107;-56
2023/07/05 04:21:26;;;;;;;4.07;1.80;;;13.80;99.90;;;;;;7379831;32;20106;-55
2023/07/05 04:25:28;;;;;;;3.78;2.00;;;13.70;99.90;;;;;;7372226;32;20126;-56
2023/07/05 04:29:30;;;;;;;4.05;1.92;;;13.70;99.90;;;;;;7382655;32;20107;-56
2023/07/05 04:33:31;;;;;;;4.82;1.90;;;13.60;99.90;;;;;;7375001;32;20126;-56
2023/07/05 04:37:33;;;;;;;5.65;2.58;;;13.50;99.90;;;;;;7380095;32;20556;-56
2023/07/05 04:41:39;;;;;;;8.15;2.90;;;13.50;99.90;;;;;;7380752;32;20103;-56
2023/07/05 04:45:40;;;;;;;3.75;2.58;;;13.50;99.90;;;;;;7376948;32;20201;-56
2023/07/05 04:49:42;;;;;;;3.87;2.33;;;13.50;99.90;;;;;;7373062;32;20490;-57
2023/07/05 04:53:44;;;;;;;4.20;2.20;;;13.60;99.90;;;;;;7382045;32;20111;-57
2023/07/05 04:57:46;;;;;;;4.47;2.60;;;13.80;99.90;;;;;;7376098;32;20463;-57
2023/07/05 05:01:48;;;;;;;4.53;2.33;;;13.80;99.90;;;;;;7373669;32;20147;-54
2023/07/05 05:05:54;;;;;;;4.72;2.55;;;13.90;99.90;;;;;;7378590;32;20297;-56
2023/07/05 05:09:58;;;;;;;5.97;2.65;;;14.00;99.90;;;;;;7374665;32;20258;-56
2023/07/05 05:14:00;;;;;;;6.68;2.65;;;14.30;99.90;;;;;;7380446;32;20115;-56
2023/07/05 05:18:02;;;;;;;3.87;2.30;;;14.50;99.90;;;;;;7380519;32;20150;-56
2023/07/05 05:22:04;;;;;;;3.80;2.47;;;14.80;99.90;;;;;;7357974;32;20823;-56
2023/07/05 05:26:06;;;;;;;6.87;2.55;;;14.80;99.90;;;;;;7376060;32;20103;-56
2023/07/05 05:30:08;;;;;;;5.37;2.72;;;14.70;99.90;;;;;;7380686;32;20102;-56
2023/07/05 05:34:10;;;;;;;4.65;2.50;;;14.70;99.90;;;;;;7380824;32;20520;-55
2023/07/05 05:38:11;;;;;;;5.62;2.70;;;14.60;99.90;;;;;;7378013;32;20484;-55
2023/07/05 05:42:13;;;;;;;4.37;2.40;;;14.50;99.90;;;;;;7381851;32;20100;-56
2023/07/05 05:46:15;;;;;;;5.82;2.53;;;14.50;99.90;;;;;;7378516;32;20185;-55
2023/07/05 05:50:19;;;;;;;5.50;2.70;;;14.60;99.90;;;;;;7373290;32;20252;-56
2023/07/05 05:54:20;;;;;;;6.12;2.67;;;14.50;99.90;;;;;;7380274;32;20119;-56
2023/07/05 05:58:23;;;;;;;6.22;2.95;;;14.50;99.90;;;;;;7381666;32;20103;-56
2023/07/05 06:02:24;;;;;;;5.10;2.47;;;14.70;99.90;;;;;;7375219;32;20617;-56
2023/07/05 06:06:26;;;;;;;4.30;2.67;;;14.60;99.90;;;;;;7378871;32;20179;-56
2023/07/05 06:10:28;;;;;;;5.32;2.55;;;14.60;99.90;;;;;;7377475;32;20115;-55
2023/07/05 06:14:30;;;;;;;4.75;2.40;;;14.50;99.90;;;;;;7379763;32;20539;-56
2023/07/05 06:18:32;;;;;;;5.93;2.47;;;14.40;99.90;;;;;;7374834;32;20115;-55
2023/07/05 06:22:34;;;;;;;3.70;2.35;;;14.20;99.90;;;;;;7383865;32;20111;-56
2023/07/05 06:26:36;;;;;;;6.28;2.53;;;14.20;99.90;;;;;;7383311;32;20111;-56
2023/07/05 06:30:38;;;;;;;6.95;2.80;;;14.20;99.90;;;;;;7377663;32;20493;-55
2023/07/05 06:34:39;;;;;;;6.60;2.60;;;14.10;99.90;;;;;;7385330;32;20129;-56
2023/07/05 06:38:41;;;;;;;6.10;2.25;;;14.20;99.90;;;;;;7383125;32;20201;-56
2023/07/05 06:42:43;;;;;;;4.47;1.77;;;14.30;99.90;;;;;;7385407;32;20168;-57
2023/07/05 06:46:45;;;;;;;5.07;2.00;;;14.30;99.90;;;;;;7384495;32;20189;-56
2023/07/05 06:50:51;;;;;;;6.43;1.90;;;14.30;99.90;;;;;;7382059;32;20571;-56
2023/07/05 06:54:53;;;;;;;4.20;2.15;;;14.50;99.90;;;;;;7382938;32;20349;-57
2023/07/05 06:58:55;;;;;;;4.78;1.67;;;14.70;99.90;;;;;;7383714;32;20840;-58
2023/07/05 07:02:57;;;;;;;4.30;1.80;;;14.70;99.90;;;;;;7379927;32;20138;-56
2023/07/05 07:06:58;;;;;;;4.30;1.70;;;14.60;99.90;;;;;;7383326;32;20509;-58
2023/07/05 07:11:02;;;;;;;9.60;1.90;;;14.60;99.90;;;;;;7380652;32;20170;-57
2023/07/05 07:15:04;;;;;;;5.28;1.80;;;14.60;99.90;;;;;;7383440;32;20560;-58
2023/07/05 07:19:05;;;;;;;2.72;1.52;;;14.60;99.90;;;;;;7379286;32;20107;-57
2023/07/05 07:23:07;;;;;;;5.35;1.70;;;14.70;99.90;;;;;;7383732;32;20821;-57
2023/07/05 07:27:09;;;;;;;3.83;1.62;;;14.70;99.90;;;;;;7377012;32;20130;-57
2023/07/05 07:31:13;;;;;;;4.10;1.60;;;14.60;99.90;;;;;;7370939;32;20194;-58
2023/07/05 07:35:15;;;;;;;4.80;1.50;;;14.60;99.90;;;;;;7376813;32;20255;-57
2023/07/05 07:39:17;;;;;;;6.35;1.65;;;14.50;99.90;;;;;;7375946;32;20137;-58
2023/07/05 07:43:19;;;;;;;5.10;1.55;;;14.50;99.90;;;;;;7383194;32;20541;-58
2023/07/05 07:47:20;;;;;;;3.70;1.60;;;14.60;99.90;;;;;;7376695;32;20131;-57
2023/07/05 07:51:25;;;;;;;4.25;1.70;;;14.60;99.90;;;;;;7381319;32;20206;-57
2023/07/05 07:55:37;;;;;;;4.55;1.52;;;14.50;99.90;;;;;;7382407;32;20102;-57
2023/07/05 07:59:41;;;;;;;4.37;1.77;;;14.50;99.90;;;;;;7383846;32;20115;-57
2023/07/05 08:03:42;;;;;;;5.85;1.70;;;14.40;99.90;;;;;;7382210;32;20497;-57
2023/07/05 08:07:45;;;;;;;6.57;1.60;;;14.30;99.90;;;;;;7381909;32;20529;-58
2023/07/05 08:11:47;;;;;;;6.62;1.75;;;14.40;99.90;;;;;;7380472;32;20107;-57
2023/07/05 08:15:49;;;;;;;4.37;1.27;;;14.60;99.90;;;;;;7382017;32;20158;-57
2023/07/05 08:19:51;;;;;;;10.23;1.30;;;14.80;99.90;;;;;;7381552;32;20150;-57
2023/07/05 08:23:53;;;;;;;6.57;1.00;;;14.70;99.90;;;;;;7381743;32;20539;-58
2023/07/05 08:27:55;;;;;;;2.83;1.30;;;14.60;99.90;;;;;;7373604;32;20579;-57
2023/07/05 08:31:57;;;;;;;6.60;1.20;;;14.60;99.90;;;;;;7381393;32;20477;-57
2023/07/05 08:36:14;;;;;;;2.70;1.20;;;14.70;99.90;;;;;;7383128;32;20127;-57
2023/07/05 08:40:17;;;;;;;4.37;1.00;;;14.80;99.90;;;;;;7381033;32;20111;-58
2023/07/05 08:44:29;;;;;;;7.37;1.35;;;14.90;99.90;;;;;;7382685;32;20129;-57
2023/07/05 08:48:33;;;;;;;6.10;1.10;;;15.00;99.90;;;;;;7378626;32;20461;-57
2023/07/05 08:52:41;;;;;;;13.15;1.42;;;15.10;99.90;;;;;;7380807;32;20478;-57
2023/07/05 08:56:48;;;;;;;2.40;1.15;;;15.20;99.90;;;;;;7378903;32;20178;-57
2023/07/05 09:00:57;;;;;;;2.90;1.00;;;15.20;99.90;;;;;;7377423;32;20129;-58
2023/07/05 09:05:01;;;;;;;4.07;1.02;;;15.30;99.90;;;;;;7378845;32;20122;-58
2023/07/05 09:09:09;;;;;;;4.50;1.25;;;15.30;99.90;;;;;;7378728;32;20100;-57
2023/07/05 09:13:21;;;;;;;5.60;1.27;;;15.30;99.90;;;;;;7380611;32;20130;-57
2023/07/05 09:17:49;;;;;;;4.55;1.40;;;15.50;99.90;;;;;;7381373;32;20232;-57
2023/07/05 09:21:55;;;;;;;;;;;15.70;99.90;;;;;;7372948;32;20126;-57
2023/07/05 09:26:04;;;;;;;4.72;1.10;;;15.80;99.90;;;;;;7377876;32;20125;-58
2023/07/05 09:30:24;;;;;;;2.87;1.00;;;16.20;99.90;;;;;;7381938;32;20194;-58
2023/07/05 09:34:40;;;;;;;7.40;1.15;;;16.70;99.90;;;;;;7380350;32;20220;-57
2023/07/05 09:38:47;;;;;;;6.62;1.33;;;16.90;99.90;;;;;;7381417;32;20102;-57
2023/07/05 09:43:07;;;;;;;8.60;1.40;;;17.20;99.90;;;;;;7379485;32;20108;-57
2023/07/05 09:47:09;;;;;;;6.32;1.37;;;17.10;99.90;;;;;;7374047;32;20194;-57
2023/07/05 09:51:11;;;;;;;6.00;1.52;;;17.00;99.90;;;;;;7381607;32;20448;-57
2023/07/05 09:55:16;;;;;;;5.22;1.30;;;17.00;99.90;;;;;;7382485;32;20110;-57
2023/07/05 09:59:21;;;;;;;8.60;1.40;;;17.00;99.90;;;;;;7381376;32;20107;-58
2023/07/05 10:03:23;;;;;;;4.05;1.05;;;16.80;99.90;;;;;;7382977;32;20106;-57
2023/07/05 10:07:32;;;;;;;3.12;1.00;;;16.90;99.90;;;;;;7374965;32;20787;-57
2023/07/05 10:11:41;;;;;;;9.32;1.40;;;17.00;99.90;;;;;;7381680;32;20460;-58
2023/07/05 10:15:47;;;;;;;5.35;1.20;;;17.10;99.90;;;;;;7381790;32;20107;-57
2023/07/05 10:19:51;;;;;;;6.03;1.10;;;17.10;99.90;;;;;;7380469;32;20606;-57
2023/07/05 10:23:53;;;;;;;4.40;1.10;;;17.00;99.90;;;;;;7378842;32;20254;-58
2023/07/05 10:27:59;;;;;;;7.87;1.37;;;16.90;99.90;;;;;;7378725;32;20192;-57
2023/07/05 10:32:01;;;;;;;9.05;1.20;;;17.00;99.90;;;;;;7386163;32;20111;-57
2023/07/05 10:36:14;;;;;;;4.80;1.42;;;18.00;99.90;;;;;;7385874;32;20121;-57
2023/07/05 10:40:16;;;;;;;9.43;1.20;;;18.60;99.90;;;;;;7379315;32;20507;-58
2023/07/05 10:44:40;;;;;;;4.90;1.10;;;18.50;99.90;;;;;;7382548;32;20125;-57
2023/07/05 10:48:43;;;;;;;9.23;1.25;;;18.50;99.90;;;;;;7382751;32;20174;-57
2023/07/05 10:52:54;;;;;;;6.60;1.25;;;18.30;99.90;;;;;;7382256;32;20286;-58
2023/07/05 10:56:58;;;;;;;5.22;1.10;;;18.80;99.90;;;;;;7375520;32;20527;-57
2023/07/05 11:01:13;;;;;;;13.27;2.40;;;18.80;99.90;;;;;;7382753;32;20147;-57
2023/07/05 11:05:27;;;;;;;5.37;1.33;;;19.50;99.90;;;;;;7384442;32;20162;-57
2023/07/05 11:09:35;;;;;;;5.85;1.50;;;20.00;99.90;;;;;;7381024;32;20167;-58
2023/07/05 11:13:37;;;;;;;26.40;2.83;;;19.90;99.90;;;;;;7381283;32;20114;-58
2023/07/05 11:17:41;;;;;;;8.52;1.30;;;19.70;99.90;;;;;;7380443;32;20207;-58
2023/07/05 11:21:49;;;;;;;21.12;3.80;;;19.90;99.90;;;;;;7379456;32;20106;-58
2023/07/05 11:26:00;;;;;;;4.87;1.50;;;20.50;99.90;;;;;;7383191;32;20131;-58
2023/07/05 11:30:03;;;;;;;5.10;1.25;;;19.90;99.90;;;;;;7378288;32;20122;-58
2023/07/05 11:34:44;;;;;;;4.35;1.37;;;19.40;99.90;;;;;;7383213;32;20162;-58
2023/07/05 11:38:46;;;;;;;3.60;1.10;;;19.80;99.90;;;;;;7342722;32;20118;-56
2023/07/05 11:42:47;;;;;;;6.95;1.23;;;20.60;99.90;;;;;;7382216;32;20133;-55
2023/07/05 11:46:49;;;;;;;6.25;1.30;;;20.20;99.90;;;;;;7382214;32;20129;-56
2023/07/05 11:50:51;;;;;;;6.47;1.27;;;20.10;99.90;;;;;;7380614;32;20139;-56
2023/07/05 11:55:13;;;;;;;5.05;1.05;;;20.40;99.90;;;;;;7382696;32;20106;-55
2023/07/05 11:59:17;;;;;;;5.37;1.15;;;20.60;99.90;;;;;;7378460;32;20186;-56
2023/07/05 12:03:24;;;;;;;7.80;1.30;;;20.90;99.90;;;;;;7383240;32;20604;-55
2023/07/05 12:07:26;;;;;;;4.47;1.15;;;20.70;99.90;;;;;;7382464;32;20504;-56
2023/07/05 12:11:40;;;;;;;3.25;1.20;;;20.50;99.90;;;;;;7381398;32;20157;-56
2023/07/05 12:15:42;;;;;;;4.85;1.00;;;21.20;99.90;;;;;;7383164;32;20758;-56
2023/07/05 12:19:46;;;;;;;6.45;0.90;;;20.80;99.90;;;;;;7382768;32;20142;-56
2023/07/05 12:23:52;;;;;;;3.75;1.20;;;20.90;98.90;;;;;;7381103;32;20135;-56
2023/07/05 12:27:53;;;;;;;5.12;1.20;;;20.30;97.50;;;;;;7382208;32;20129;-56
2023/07/05 12:32:10;;;;;;;10.93;1.60;;;19.80;99.90;;;;;;7371101;32;20130;-57
2023/07/05 12:36:17;;;;;;;9.70;1.55;;;19.30;99.90;;;;;;7378421;32;20190;-56
2023/07/05 12:40:32;;;;;;;6.80;1.58;;;19.40;99.90;;;;;;7376381;32;20545;-56
2023/07/05 12:44:34;;;;;;;7.53;1.40;;;20.10;99.90;;;;;;7382737;32;20183;-58
2023/07/05 12:48:36;;;;;;;6.50;1.60;;;20.50;99.90;;;;;;7372506;32;20127;-57
2023/07/05 12:52:38;;;;;;;7.45;1.30;;;20.40;99.90;;;;;;7377961;32;20106;-56
2023/07/05 12:56:44;;;;;;;5.30;1.45;;;21.10;99.90;;;;;;7379836;32;20226;-57
2023/07/05 13:00:51;;;;;;;6.95;1.75;;;21.90;99.90;;;;;;7381728;32;20253;-57
2023/07/05 13:04:53;;;;;;;13.40;1.90;;;21.90;99.90;;;;;;7382376;32;20158;-57
2023/07/05 13:08:57;;;;;;;13.75;1.85;;;21.50;99.90;;;;;;7380213;32;20126;-57
2023/07/05 13:12:59;;;;;;;21.30;2.37;;;20.70;99.90;;;;;;7374271;32;20297;-56
2023/07/05 13:17:23;;;;;;;18.95;2.58;;;20.40;99.90;;;;;;7380911;32;20102;-57
2023/07/05 13:21:35;;;;;;;13.18;2.00;;;20.50;99.90;;;;;;7372542;32;20152;-57
2023/07/05 13:25:45;;;;;;;13.25;1.85;;;20.30;99.90;;;;;;7377332;32;20242;-57
2023/07/05 13:29:48;;;;;;;14.35;1.75;;;20.30;99.90;;;;;;7383788;32;20193;-56
2023/07/05 13:33:57;;;;;;;8.60;1.42;;;20.00;99.90;;;;;;7385067;32;20107;-56
2023/07/05 13:38:00;;;;;;;11.32;1.83;;;19.70;99.90;;;;;;7382682;32;20136;-56
2023/07/05 13:42:03;;;;;;;3.97;1.42;;;19.40;99.90;;;;;;7381066;32;20502;-56
2023/07/05 13:46:04;;;;;;;9.77;1.75;;;19.10;99.90;;;;;;7381017;32;20157;-56
2023/07/05 13:50:08;;;;;;;3.20;1.52;;;18.90;99.90;;;;;;7384846;32;20142;-56
2023/07/05 13:54:12;;;;;;;4.95;1.83;;;18.60;99.90;;;;;;7377703;32;20160;-56
2023/07/05 13:58:18;;;;;;;5.78;1.75;;;18.80;99.90;;;;;;7385191;32;20159;-56
2023/07/05 14:02:31;;;;;;;4.93;1.37;;;19.30;99.90;;;;;;7378400;32;20503;-57
2023/07/05 14:06:33;;;;;;;5.05;2.00;;;19.90;99.90;;;;;;7381042;32;20121;-57
2023/07/05 14:10:35;;;;;;;6.18;1.70;;;20.30;99.90;;;;;;7380473;32;20122;-56
2023/07/05 14:14:37;;;;;;;5.68;1.65;;;20.60;99.90;;;;;;7383617;32;20262;-55
2023/07/05 14:18:39;;;;;;;4.10;1.55;;;20.10;99.90;;;;;;7376810;32;20111;-56
2023/07/05 14:22:41;;;;;;;5.68;1.50;;;20.20;99.90;;;;;;7386346;32;20127;-57
2023/07/05 14:26:43;;;;;;;5.22;1.58;;;20.10;99.90;;;;;;7381075;32;20122;-56
2023/07/05 14:30:47;;;;;;;4.35;1.40;;;19.90;99.90;;;;;;7381825;32;20285;-57
2023/07/05 14:34:49;;;;;;;4.10;1.37;;;19.80;99.90;;;;;;7376478;32;20126;-57
2023/07/05 14:38:51;;;;;;;5.62;1.50;;;19.50;99.90;;;;;;7382462;32;20566;-57
2023/07/05 14:42:53;;;;;;;8.30;2.12;;;19.50;99.90;;;;;;7379928;32;20155;-57
2023/07/05 14:46:55;;;;;;;3.22;1.40;;;19.40;99.90;;;;;;7382704;32;20114;-57
2023/07/05 14:50:57;;;;;;;2.25;1.35;;;19.40;99.90;;;;;;7377463;32;20119;-57
2023/07/05 14:54:58;;;;;;;3.67;1.50;;;19.20;99.90;;;;;;7377304;32;20106;-57
2023/07/05 14:59:00;;;;;;;5.05;1.48;;;19.30;99.90;;;;;;7380140;32;20246;-57
2023/07/05 15:03:07;;;;;;;6.32;1.42;;;19.40;99.90;;;;;;7380287;32;20571;-56
2023/07/05 15:07:15;;;;;;;4.15;1.70;;;19.30;99.90;;;;;;7385686;32;20188;-56
2023/07/05 15:11:18;;;;;;;6.87;1.80;;;19.00;99.90;;;;;;7382150;32;20220;-56
2023/07/05 15:15:23;;;;;;;14.82;3.03;;;18.50;99.90;;;;;;7370604;32;20100;-57
2023/07/05 15:19:25;;;;;;;16.65;4.47;;;17.80;99.90;;;;;;7383666;32;20180;-56
2023/07/05 15:23:27;;;;;;;10.65;3.33;;;17.10;99.90;;;;;;7381400;32;20107;-57
2023/07/05 15:27:28;;;;;;;7.85;3.30;;;16.50;99.90;;;;;;7378373;32;20465;-57
2023/07/05 15:31:33;;;;;;;5.62;2.78;;;16.20;99.90;;;;;;7381976;32;20107;-57
2023/07/05 15:35:34;;;;;;;5.35;3.40;;;16.00;99.90;;;;;;7382529;32;20111;-56
2023/07/05 15:39:36;;;;;;;13.82;3.87;;;15.80;99.90;;;;;;7381848;32;20797;-56
2023/07/05 15:43:38;;;;;;;8.07;3.95;;;15.70;99.90;;;;;;7379035;32;20123;-56
2023/07/05 15:47:40;;;;;;;9.98;4.20;;;15.80;99.90;;;;;;7383341;32;20125;-57
2023/07/05 15:51:42;;;;;;;6.72;2.83;;;15.90;99.90;;;;;;7383714;32;20114;-57
2023/07/05 15:55:44;;;;;;;5.43;2.12;;;15.90;99.90;;;;;;7383552;32;20107;-57
2023/07/05 15:59:57;;;;;;;4.78;2.28;;;15.90;99.90;;;;;;7384168;32;20134;-56
2023/07/05 16:03:59;;;;;;;4.53;2.17;;;16.10;99.90;;;;;;7378635;32;20195;-56
2023/07/05 16:08:05;;;;;;;6.05;2.70;;;16.00;99.90;;;;;;7373247;32;20102;-56
2023/07/05 16:12:07;;;;;;;6.28;2.40;;;15.90;99.90;;;;;;7373813;32;20401;-56
2023/07/05 16:16:09;;;;;;;9.60;2.20;;;15.80;99.90;;;;;;7379810;32;20175;-56
2023/07/05 16:20:11;;;;;;;6.00;2.50;;;15.80;99.90;;;;;;7367436;32;20133;-57
2023/07/05 16:24:13;;;;;;;4.45;2.12;;;16.00;99.90;;;;;;7383665;32;20498;-57
2023/07/05 16:28:15;;;;;;;3.25;1.60;;;16.10;99.90;;;;;;7370342;32;20482;-56
2023/07/05 16:32:17;;;;;;;6.97;2.28;;;16.10;99.90;;;;;;7381985;32;20202;-56
2023/07/05 16:36:19;;;;;;;4.37;2.37;;;16.10;99.90;;;;;;7375488;32;20238;-55
2023/07/05 16:40:20;;;;;;;3.62;2.25;;;16.30;99.90;;;;;;7372095;32;20106;-57
2023/07/05 16:44:26;;;;;;;5.87;2.40;;;16.30;99.90;;;;;;7376573;32;20103;-57
2023/07/05 16:48:28;;;;;;;3.85;1.62;;;16.20;99.90;;;;;;7372968;32;20210;-57
2023/07/05 16:52:30;;;;;;;3.28;1.25;;;16.10;99.90;;;;;;7376891;32;20139;-58
2023/07/05 16:56:32;;;;;;;3.08;1.20;;;15.90;99.90;;;;;;7377055;32;20169;-57
2023/07/05 17:00:34;;;;;;;3.85;1.70;;;15.60;99.90;;;;;;7376389;32;20182;-57
2023/07/05 17:04:36;;;;;;;4.05;1.70;;;15.50;99.90;;;;;;7376873;32;20313;-57
2023/07/05 17:08:39;;;;;;;3.25;1.73;;;15.40;99.90;;;;;;7380765;32;20110;-56
2023/07/05 17:12:41;;;;;;;4.53;1.83;;;15.10;99.90;;;;;;7373493;32;20247;-57
2023/07/05 17:16:43;;;;;;;5.37;2.00;;;15.00;99.90;;;;;;7382635;32;20141;-57
2023/07/05 17:20:53;;;;;;;2.83;1.40;;;15.00;99.90;;;;;;7375536;32;20124;-57
2023/07/05 17:24:56;;;;;;;8.35;1.77;;;15.00;99.90;;;;;;7369365;32;20260;-57
2023/07/05 17:28:57;;;;;;;3.87;1.62;;;15.20;99.90;;;;;;7376931;32;20720;-57
2023/07/05 17:33:03;;;;;;;2.85;1.52;;;15.60;99.90;;;;;;7377962;32;20111;-57
2023/07/05 17:37:05;;;;;;;3.42;1.30;;;15.70;99.90;;;;;;7382909;32;20108;-57
2023/07/05 17:41:07;;;;;;;4.10;1.30;;;15.80;99.90;;;;;;7370683;32;20151;-56
2023/07/05 17:45:09;;;;;;;2.53;1.20;;;15.80;99.90;;;;;;7381107;32;20133;-56
2023/07/05 17:49:11;;;;;;;2.62;1.33;;;15.70;99.90;;;;;;7382031;32;20513;-57
2023/07/05 17:53:13;;;;;;;2.03;1.15;;;15.70;99.90;;;;;;7382354;32;20437;-56
2023/07/05 17:57:17;;;;;;;2.75;1.55;;;15.60;99.90;;;;;;7375028;32;20434;-57
2023/07/05 18:01:20;;;;;;;2.95;1.25;;;15.50;99.90;;;;;;7381442;32;20107;-57
2023/07/05 18:05:22;;;;;;;3.22;1.37;;;15.60;99.90;;;;;;7381652;32;20234;-57
2023/07/05 18:09:24;;;;;;;1.95;1.30;;;15.60;99.90;;;;;;7377128;32;20803;-57
2023/07/05 18:13:30;;;;;;;2.17;1.30;;;15.70;99.90;;;;;;7367482;32;20115;-57
2023/07/05 18:17:32;;;;;;;3.13;1.10;;;15.70;99.90;;;;;;7379036;32;20182;-58
2023/07/05 18:21:38;;;;;;;4.40;1.40;;;15.70;99.90;;;;;;7371209;32;20139;-57
2023/07/05 18:25:40;;;;;;;5.43;1.40;;;15.70;99.90;;;;;;7379887;32;20098;-58
2023/07/05 18:29:42;;;;;;;3.35;1.42;;;15.70;99.90;;;;;;7384623;32;20677;-57
2023/07/05 18:33:44;;;;;;;2.85;1.20;;;15.70;99.90;;;;;;7377103;32;20193;-57
2023/07/05 18:37:45;;;;;;;3.15;1.17;;;15.80;99.90;;;;;;7381652;32;20251;-57
2023/07/05 18:41:49;;;;;;;2.47;1.20;;;15.80;99.90;;;;;;7381633;32;20539;-56
2023/07/05 18:45:53;;;;;;;3.00;1.15;;;15.80;99.90;;;;;;7382515;32;20107;-57
2023/07/05 18:49:55;;;;;;;4.50;1.62;;;15.70;99.90;;;;;;7377009;32;20133;-56
2023/07/05 18:53:56;;;;;;;2.47;1.40;;;15.70;99.90;;;;;;7381637;32;20168;-56
2023/07/05 18:57:58;;;;;;;4.10;1.30;;;15.60;99.90;;;;;;7385675;32;20190;-56
2023/07/05 19:02:00;;;;;;;4.45;1.30;;;15.60;99.90;;;;;;7384115;32;20115;-56
2023/07/05 19:06:08;;;;;;;1.65;1.20;;;15.50;99.90;;;;;;7384876;32;20133;-57
2023/07/05 19:10:10;;;;;;;4.05;1.60;;;15.40;99.90;;;;;;7375611;32;20187;-56
2023/07/05 19:14:11;;;;;;;2.37;1.33;;;15.40;99.90;;;;;;7381295;32;20110;-56
2023/07/05 19:18:13;;;;;;;2.20;1.35;;;15.40;99.90;;;;;;7381809;32;20195;-57
2023/07/05 19:22:16;;;;;;;3.30;1.48;;;15.40;99.90;;;;;;7377852;32;20195;-56
2023/07/05 19:26:19;;;;;;;4.50;1.75;;;15.30;99.90;;;;;;7380970;32;20206;-56
2023/07/05 19:30:21;;;;;;;3.03;1.45;;;15.40;99.90;;;;;;7378934;32;20160;-57
2023/07/05 19:34:23;;;;;;;3.03;1.52;;;15.30;99.90;;;;;;7382266;32;20152;-56
2023/07/05 19:38:24;;;;;;;3.25;1.42;;;15.30;99.90;;;;;;7383946;32;20151;-57
2023/07/05 19:42:26;;;;;;;4.82;1.77;;;15.40;99.90;;;;;;7371083;32;20194;-56
2023/07/05 19:46:28;;;;;;;5.05;1.75;;;15.40;99.90;;;;;;7383744;32;20175;-56
2023/07/05 19:50:33;;;;;;;3.87;2.00;;;15.40;99.90;;;;;;7383037;32;20128;-56
2023/07/05 19:54:35;;;;;;;4.50;1.80;;;15.50;99.90;;;;;;7381917;32;20161;-56
2023/07/05 19:58:36;;;;;;;4.43;1.98;;;15.50;99.90;;;;;;7375772;32;20144;-56
2023/07/05 20:02:38;;;;;;;4.62;2.50;;;15.60;99.90;;;;;;7383608;32;20328;-55
2023/07/05 20:06:40;;;;;;;7.00;3.10;;;15.60;99.90;;;;;;7384553;32;20438;-56
2023/07/05 20:10:42;;;;;;;5.25;1.90;;;15.70;99.90;;;;;;7370675;32;20559;-56
2023/07/05 20:14:44;;;;;;;3.67;2.00;;;15.70;99.90;;;;;;7372365;32;20159;-55
2023/07/05 20:18:48;;;;;;;2.87;2.05;;;15.60;99.90;;;;;;7375962;32;20648;-55
2023/07/05 20:22:50;;;;;;;3.22;2.10;;;15.60;99.90;;;;;;7381111;32;20179;-56
2023/07/05 20:26:52;;;;;;;6.72;2.55;;;15.60;99.90;;;;;;7381718;32;20480;-56
2023/07/05 20:30:57;;;;;;;4.75;2.12;;;15.50;99.90;;;;;;7381169;32;20708;-56
2023/07/05 20:34:58;;;;;;;3.87;2.37;;;15.50;99.90;;;;;;7379096;32;20256;-56
2023/07/05 20:39:00;;;;;;;5.68;2.33;;;15.50;99.90;;;;;;7375695;32;20123;-57
2023/07/05 20:43:02;;;;;;;2.87;2.12;;;15.40;99.90;;;;;;7379400;32;20313;-56
2023/07/05 20:47:04;;;;;;;6.22;2.20;;;15.50;99.90;;;;;;7369237;32;20099;-56
2023/07/05 20:51:21;;;;;;;5.03;1.87;;;15.50;99.90;;;;;;7380014;32;20103;-56
2023/07/05 20:55:23;;;;;;;3.92;1.95;;;15.60;99.90;;;;;;7382304;32;20174;-56
2023/07/05 20:59:24;;;;;;;6.22;1.98;;;15.30;99.90;;;;;;7372886;32;20171;-56
2023/07/05 21:03:27;;;;;;;5.80;1.87;;;15.20;99.90;;;;;;7375875;32;20529;-56
2023/07/05 21:07:30;;;;;;;3.60;1.92;;;15.10;99.90;;;;;;7375940;32;20137;-56
2023/07/05 21:11:32;;;;;;;4.20;1.87;;;15.10;99.90;;;;;;7373520;32;20156;-56